createdAt,value
2018-09-20T00:01:59.272Z,815.50
2018-09-20T00:04:27.799Z,803.80
2018-09-20T00:06:56.424Z,808.90
2018-09-20T00:09:24.992Z,815.40
2018-09-20T00:11:53.583Z,817.40
2018-09-20T00:14:22.160Z,809.03
2018-09-20T00:16:50.770Z,803.60
2018-09-20T00:19:19.288Z,808.90
2018-09-20T00:21:47.880Z,799.93
2018-09-20T00:24:16.441Z,793.23
2018-09-20T00:26:44.968Z,792.47
2018-09-20T00:29:13.526Z,778.13
2018-09-20T00:31:42.075Z,801.33
2018-09-20T00:34:10.611Z,774.73
2018-09-20T00:36:39.116Z,768.83
2018-09-20T00:39:11.768Z,796.47
2018-09-20T00:41:40.336Z,775.70
2018-09-20T00:44:09.429Z,752.73
2018-09-20T00:46:37.920Z,755.20
2018-09-20T00:49:06.688Z,760.47
2018-09-20T00:51:35.369Z,732.27
2018-09-20T00:54:04.135Z,724.00
2018-09-20T00:56:32.630Z,738.97
2018-09-20T00:59:01.213Z,748.47
2018-09-20T01:01:29.748Z,758.13
2018-09-20T01:03:58.298Z,751.47
2018-09-20T01:06:26.844Z,731.30
2018-09-20T01:08:55.426Z,720.67
2018-09-20T01:11:24.008Z,723.63
2018-09-20T01:13:52.967Z,719.90
2018-09-20T01:16:21.517Z,745.50
2018-09-20T01:18:50.093Z,728.57
2018-09-20T01:21:18.657Z,728.83
2018-09-20T01:23:47.209Z,732.60
2018-09-20T01:26:15.759Z,732.93
2018-09-20T01:28:44.301Z,729.80
2018-09-20T01:31:12.869Z,746.67
2018-09-20T01:33:41.389Z,747.33
2018-09-20T01:36:09.937Z,733.80
2018-09-20T01:38:38.467Z,742.27
2018-09-20T01:41:07.053Z,747.50
2018-09-20T01:43:35.601Z,728.37
2018-09-20T01:46:04.147Z,741.80
2018-09-20T01:48:32.683Z,716.13
2018-09-20T01:51:01.194Z,691.30
2018-09-20T01:53:29.732Z,704.43
2018-09-20T01:55:58.287Z,717.40
2018-09-20T01:58:26.829Z,712.07
2018-09-20T02:00:55.466Z,678.63
2018-09-20T02:03:24.009Z,677.47
2018-09-20T02:05:52.554Z,680.70
2018-09-20T02:08:21.109Z,687.60
2018-09-20T02:10:49.756Z,677.40
2018-09-20T02:13:18.285Z,645.00
2018-09-20T02:15:46.868Z,639.80
2018-09-20T02:18:15.377Z,662.83
2018-09-20T02:20:43.949Z,634.37
2018-09-20T02:23:12.481Z,651.53
2018-09-20T02:25:40.992Z,664.60
2018-09-20T02:28:09.549Z,657.20
2018-09-20T02:30:38.052Z,645.33
2018-09-20T02:33:06.575Z,666.93
2018-09-20T02:35:35.123Z,652.17
2018-09-20T02:38:03.756Z,622.40
2018-09-20T02:40:32.250Z,647.07
2018-09-20T02:43:00.804Z,663.63
2018-09-20T02:45:29.338Z,661.07
2018-09-20T02:47:58.168Z,646.60
2018-09-20T02:50:26.708Z,649.60
2018-09-20T02:52:55.261Z,657.83
2018-09-20T02:55:23.809Z,668.67
2018-09-20T02:57:52.478Z,655.93
2018-09-20T03:00:21.031Z,675.63
2018-09-20T03:02:49.644Z,676.37
2018-09-20T03:05:18.143Z,672.70
2018-09-20T03:07:46.635Z,658.07
2018-09-20T03:10:15.172Z,641.53
2018-09-20T03:12:43.682Z,642.77
2018-09-20T03:15:12.510Z,659.93
2018-09-20T03:17:41.061Z,640.10
2018-09-20T03:20:09.674Z,629.20
2018-09-20T03:22:38.285Z,621.30
2018-09-20T03:25:06.859Z,630.83
2018-09-20T03:27:35.408Z,624.83
2018-09-20T03:30:04.036Z,592.53
2018-09-20T03:32:32.589Z,593.23
2018-09-20T03:35:01.197Z,582.87
2018-09-20T03:37:29.705Z,599.13
2018-09-20T03:39:58.324Z,595.63
2018-09-20T03:42:26.871Z,566.03
2018-09-20T03:44:55.454Z,522.40
2018-09-20T03:47:23.949Z,482.00
2018-09-20T03:49:52.535Z,436.37
2018-09-20T03:52:21.071Z,424.60
2018-09-20T03:54:49.653Z,409.70
2018-09-20T03:57:18.224Z,395.70
2018-09-20T03:59:46.966Z,379.83
2018-09-20T04:02:15.520Z,378.53
2018-09-20T04:04:44.109Z,372.17
2018-09-20T04:07:12.653Z,350.07
2018-09-20T04:09:41.152Z,395.13
2018-09-20T04:12:09.748Z,398.63
2018-09-20T04:14:38.260Z,428.73
2018-09-20T04:17:06.909Z,441.30
2018-09-20T04:19:35.413Z,433.60
2018-09-20T04:22:04.000Z,420.80
2018-09-20T04:24:32.499Z,487.80
2018-09-20T04:27:01.040Z,436.63
2018-09-20T04:29:29.742Z,460.17
2018-09-20T04:31:58.442Z,440.87
2018-09-20T04:34:26.939Z,466.47
2018-09-20T04:36:55.460Z,503.43
2018-09-20T04:39:24.030Z,520.47
2018-09-20T04:41:52.532Z,560.37
2018-09-20T04:44:21.180Z,539.97
2018-09-20T04:46:49.700Z,502.03
2018-09-20T04:49:18.252Z,467.83
2018-09-20T04:51:46.810Z,490.30
2018-09-20T04:54:15.333Z,557.10
2018-09-20T04:56:43.883Z,594.90
2018-09-20T04:59:12.433Z,606.03
2018-09-20T05:01:41.015Z,613.83
2018-09-20T05:04:09.580Z,607.83
2018-09-20T05:06:38.101Z,547.63
2018-09-20T05:09:09.401Z,586.93
2018-09-20T05:11:37.900Z,632.40
2018-09-20T05:14:06.476Z,600.63
2018-09-20T05:16:35.032Z,593.47
2018-09-20T05:19:03.569Z,609.47
2018-09-20T05:21:32.116Z,637.67
2018-09-20T05:24:00.845Z,672.20
2018-09-20T05:26:29.409Z,639.87
2018-09-20T05:28:57.924Z,674.20
2018-09-20T05:31:26.485Z,655.50
2018-09-20T05:33:55.028Z,702.87
2018-09-20T05:36:23.656Z,726.30
2018-09-20T05:38:52.243Z,702.17
2018-09-20T05:41:20.772Z,719.00
2018-09-20T05:43:49.424Z,724.87
2018-09-20T05:46:17.984Z,723.47
2018-09-20T05:48:46.525Z,725.40
2018-09-20T05:51:15.037Z,723.60
2018-09-20T05:53:43.579Z,726.23
2018-09-20T05:56:12.099Z,706.20
2018-09-20T05:58:40.753Z,696.67
2018-09-20T06:01:09.561Z,696.33
2018-09-20T06:03:38.118Z,647.43
2018-09-20T06:06:06.632Z,623.87
2018-09-20T06:08:35.165Z,596.87
2018-09-20T06:11:03.789Z,569.97
2018-09-20T06:13:32.306Z,543.33
2018-09-20T06:16:00.898Z,502.60
2018-09-20T06:18:29.447Z,458.03
2018-09-20T06:20:57.985Z,451.43
2018-09-20T06:23:26.491Z,451.17
2018-09-20T06:25:55.005Z,472.70
2018-09-20T06:28:23.559Z,475.70
2018-09-20T06:30:52.120Z,476.37
2018-09-20T06:33:20.634Z,469.03
2018-09-20T06:35:49.179Z,465.93
2018-09-20T06:38:17.735Z,476.23
2018-09-20T06:40:46.264Z,463.37
2018-09-20T06:43:14.808Z,478.87
2018-09-20T06:45:43.365Z,478.43
2018-09-20T06:48:11.932Z,501.63
2018-09-20T06:50:40.471Z,508.13
2018-09-20T06:53:08.988Z,533.83
2018-09-20T06:55:37.549Z,589.53
2018-09-20T06:58:06.134Z,626.53
2018-09-20T07:00:34.721Z,666.70
2018-09-20T07:03:03.370Z,672.13
2018-09-20T07:05:31.861Z,714.70
2018-09-20T07:08:00.375Z,732.50
2018-09-20T07:10:28.932Z,746.33
2018-09-20T07:12:57.453Z,764.90
2018-09-20T07:15:26.039Z,773.63
2018-09-20T07:17:54.613Z,780.43
2018-09-20T07:20:23.164Z,796.83
2018-09-20T07:22:51.722Z,826.10
2018-09-20T07:25:20.345Z,818.50
2018-09-20T07:27:48.791Z,830.17
2018-09-20T07:30:17.361Z,842.70
2018-09-20T07:32:45.987Z,837.27
2018-09-20T07:35:14.516Z,841.10
2018-09-20T07:37:43.077Z,857.87
2018-09-20T07:40:11.627Z,839.97
2018-09-20T07:42:40.165Z,879.30
2018-09-20T07:45:08.742Z,874.63
2018-09-20T07:47:37.282Z,880.90
2018-09-20T07:50:06.121Z,880.80
2018-09-20T07:52:34.659Z,877.10
2018-09-20T07:55:03.427Z,863.00
2018-09-20T07:57:31.946Z,862.70
2018-09-20T08:00:02.150Z,866.37
2018-09-20T08:02:30.784Z,869.13
2018-09-20T08:04:59.453Z,885.80
2018-09-20T08:07:28.158Z,906.60
2018-09-20T08:09:56.838Z,891.30
2018-09-20T08:12:25.396Z,885.90
2018-09-20T08:14:54.123Z,890.60
2018-09-20T08:17:22.701Z,881.60
2018-09-20T08:19:51.220Z,903.00
2018-09-20T08:22:19.800Z,882.70
2018-09-20T08:24:48.349Z,883.10
2018-09-20T08:27:16.869Z,895.33
2018-09-20T08:29:45.424Z,896.20
2018-09-20T08:32:13.944Z,906.00
2018-09-20T08:34:42.572Z,908.70
2018-09-20T08:37:11.115Z,907.20
2018-09-20T08:39:39.720Z,905.50
2018-09-20T08:42:08.481Z,905.93
2018-09-20T08:44:37.011Z,917.80
2018-09-20T08:47:05.601Z,920.20
2018-09-20T08:49:34.224Z,920.87
2018-09-20T08:52:02.760Z,937.50
2018-09-20T08:54:31.272Z,918.57
2018-09-20T08:57:00.026Z,928.70
2018-09-20T08:59:28.519Z,913.77
2018-09-20T09:01:57.069Z,927.33
2018-09-20T09:04:25.656Z,913.00
2018-09-20T09:06:54.261Z,926.53
2018-09-20T09:09:22.780Z,917.23
2018-09-20T09:11:51.396Z,912.43
2018-09-20T09:14:19.934Z,914.53
2018-09-20T09:16:48.527Z,922.30
2018-09-20T09:19:17.116Z,922.23
2018-09-20T09:21:45.644Z,912.27
2018-09-20T09:24:14.204Z,907.30
2018-09-20T09:26:42.756Z,902.70
2018-09-20T09:29:11.356Z,918.13
2018-09-20T09:31:39.916Z,887.80
2018-09-20T09:34:08.485Z,900.43
2018-09-20T09:36:37.458Z,875.53
2018-09-20T09:39:08.520Z,874.57
2018-09-20T09:41:37.072Z,878.00
2018-09-20T09:44:05.610Z,886.43
2018-09-20T09:46:34.160Z,873.33
2018-09-20T09:49:02.700Z,873.87
2018-09-20T09:51:31.238Z,876.67
2018-09-20T09:53:59.785Z,871.20
2018-09-20T09:56:28.668Z,854.20
2018-09-20T09:58:58.448Z,864.73
2018-09-20T10:01:27.027Z,873.17
2018-09-20T10:03:55.624Z,863.30
2018-09-20T10:06:24.196Z,871.93
2018-09-20T10:08:52.882Z,877.40
2018-09-20T10:11:21.445Z,851.83
2018-09-20T10:13:50.184Z,864.23
2018-09-20T10:16:18.730Z,878.63
2018-09-20T10:18:47.237Z,890.97
2018-09-20T10:21:15.783Z,887.23
2018-09-20T10:23:44.369Z,883.60
2018-09-20T10:26:12.919Z,886.60
2018-09-20T10:28:41.723Z,873.90
2018-09-20T10:31:10.252Z,880.90
2018-09-20T10:33:38.859Z,892.53
2018-09-20T10:36:07.424Z,889.77
2018-09-20T10:38:35.982Z,892.47
2018-09-20T10:41:04.852Z,896.13
2018-09-20T10:43:33.428Z,867.63
2018-09-20T10:46:01.955Z,881.03
2018-09-20T10:48:30.607Z,889.30
2018-09-20T10:50:59.380Z,905.07
2018-09-20T10:53:27.880Z,895.23
2018-09-20T10:55:56.528Z,890.73
2018-09-20T10:58:25.045Z,882.50
2018-09-20T11:00:53.914Z,896.20
2018-09-20T11:03:22.533Z,904.77
2018-09-20T11:05:51.197Z,891.33
2018-09-20T11:08:19.728Z,894.30
2018-09-20T11:10:48.295Z,904.47
2018-09-20T11:13:16.832Z,898.17
2018-09-20T11:15:45.387Z,901.43
2018-09-20T11:18:14.016Z,910.43
2018-09-20T11:20:42.608Z,891.90
2018-09-20T11:23:11.274Z,910.60
2018-09-20T11:25:39.871Z,903.47
2018-09-20T11:28:08.442Z,884.97
2018-09-20T11:30:36.945Z,911.50
2018-09-20T11:33:05.731Z,903.77
2018-09-20T11:35:34.238Z,913.63
2018-09-20T11:38:02.892Z,898.57
2018-09-20T11:40:31.466Z,903.20
2018-09-20T11:42:59.976Z,879.83
2018-09-20T11:45:29.233Z,881.23
2018-09-20T11:47:57.787Z,845.40
2018-09-20T11:50:26.839Z,836.27
2018-09-20T11:52:55.405Z,838.70
2018-09-20T11:55:23.969Z,833.17
2018-09-20T11:57:52.521Z,839.80
2018-09-20T12:00:22.172Z,823.40
2018-09-20T12:02:52.344Z,821.47
2018-09-20T12:05:21.486Z,852.70
2018-09-20T12:07:50.064Z,854.03
2018-09-20T12:10:19.336Z,870.80
2018-09-20T12:12:49.068Z,853.77
2018-09-20T12:15:17.703Z,851.90
2018-09-20T12:17:46.554Z,797.73
2018-09-20T12:20:15.117Z,810.27
2018-09-20T12:22:43.805Z,816.23
2018-09-20T12:25:12.380Z,859.60
2018-09-20T12:27:40.927Z,856.27
2018-09-20T12:30:09.833Z,849.13
2018-09-20T12:32:38.491Z,878.70
2018-09-20T12:35:07.106Z,847.37
2018-09-20T12:37:35.608Z,894.03
2018-09-20T12:40:04.725Z,866.23
2018-09-20T12:42:33.394Z,865.67
2018-09-20T12:45:02.483Z,876.00
2018-09-20T12:47:31.333Z,840.53
2018-09-20T12:50:00.076Z,854.00
2018-09-20T12:52:28.824Z,859.27
2018-09-20T12:54:58.406Z,883.77
2018-09-20T12:57:26.981Z,887.33
2018-09-20T12:59:55.644Z,896.93
2018-09-20T13:02:24.451Z,894.90
2018-09-20T13:04:53.023Z,900.70
2018-09-20T13:07:21.718Z,867.57
2018-09-20T13:09:50.286Z,891.27
2018-09-20T13:12:18.880Z,900.13
2018-09-20T13:14:47.484Z,879.83
2018-09-20T13:17:16.023Z,893.03
2018-09-20T13:19:44.547Z,894.60
2018-09-20T13:22:13.124Z,874.07
2018-09-20T13:24:41.675Z,905.90
2018-09-20T13:27:10.389Z,886.00
2018-09-20T13:29:38.953Z,883.73
2018-09-20T13:32:07.656Z,894.20
2018-09-20T13:34:36.203Z,890.10
2018-09-20T13:37:04.768Z,892.07
2018-09-20T13:39:33.549Z,884.10
2018-09-20T13:42:02.109Z,895.10
2018-09-20T13:44:30.853Z,880.30
2018-09-20T13:46:59.648Z,864.10
2018-09-20T13:49:28.316Z,885.83
2018-09-20T13:51:57.216Z,874.50
2018-09-20T13:54:26.038Z,889.73
2018-09-20T13:56:55.052Z,870.70
2018-09-20T13:59:23.720Z,879.23
2018-09-20T14:01:52.513Z,869.77
2018-09-20T14:04:21.281Z,873.07
2018-09-20T14:06:49.960Z,875.57
2018-09-20T14:09:18.481Z,885.40
2018-09-20T14:11:47.063Z,867.47
2018-09-20T14:14:15.577Z,877.80
2018-09-20T14:16:44.116Z,855.57
2018-09-20T14:19:12.807Z,877.10
2018-09-20T14:21:41.880Z,897.80
2018-09-20T14:24:10.470Z,873.30
2018-09-20T14:26:39.025Z,896.00
2018-09-20T14:29:07.585Z,887.23
2018-09-20T14:31:36.300Z,882.37
2018-09-20T14:34:07.939Z,895.27
2018-09-20T14:36:36.612Z,883.10
2018-09-20T14:39:08.042Z,874.70
2018-09-20T14:41:36.573Z,904.07
2018-09-20T14:44:05.092Z,894.93
2018-09-20T14:46:33.708Z,897.17
2018-09-20T14:49:02.278Z,884.33
2018-09-20T14:51:31.019Z,876.00
2018-09-20T14:53:59.571Z,879.60
2018-09-20T14:56:28.139Z,886.23
2018-09-20T14:58:56.730Z,881.67
2018-09-20T15:01:25.304Z,899.03
2018-09-20T15:03:53.840Z,894.10
2018-09-20T15:06:22.396Z,889.07
2018-09-20T15:08:51.572Z,886.03
2018-09-20T15:11:20.119Z,898.97
2018-09-20T15:13:48.790Z,905.33
2018-09-20T15:16:17.546Z,877.70
2018-09-20T15:18:46.075Z,874.23
2018-09-20T15:21:14.776Z,889.70
2018-09-20T15:23:43.347Z,853.80
2018-09-20T15:26:11.857Z,899.33
2018-09-20T15:28:40.413Z,881.53
2018-09-20T15:31:08.937Z,866.67
2018-09-20T15:33:37.481Z,889.67
2018-09-20T15:36:06.001Z,894.17
2018-09-20T15:39:05.416Z,905.70
2018-09-20T15:41:33.936Z,900.00
2018-09-20T15:44:05.964Z,911.00
2018-09-20T15:46:34.512Z,895.77
2018-09-20T15:49:05.489Z,889.97
2018-09-20T15:51:34.318Z,893.33
2018-09-20T15:54:05.156Z,892.33
2018-09-20T15:56:33.705Z,876.90
2018-09-20T15:59:02.221Z,872.63
2018-09-20T16:01:30.826Z,871.90
2018-09-20T16:03:59.410Z,872.07
2018-09-20T16:06:28.016Z,880.07
2018-09-20T16:08:56.584Z,877.00
2018-09-20T16:11:25.158Z,862.93
2018-09-20T16:13:53.989Z,841.97
2018-09-20T16:16:22.556Z,860.83
2018-09-20T16:18:51.141Z,842.37
2018-09-20T16:21:19.803Z,839.13
2018-09-20T16:23:48.759Z,853.33
2018-09-20T16:26:17.313Z,847.67
2018-09-20T16:28:54.298Z,835.13
2018-09-20T16:32:46.364Z,830.33
2018-09-20T16:35:23.362Z,824.67
2018-09-20T16:38:22.891Z,837.20
2018-09-20T16:40:52.946Z,822.07
2018-09-20T16:43:21.508Z,847.80
2018-09-20T16:45:50.085Z,835.67
2018-09-20T16:48:18.800Z,841.40
2018-09-20T16:50:47.762Z,857.67
2018-09-20T16:53:16.419Z,863.93
2018-09-20T16:55:44.932Z,842.97
2018-09-20T16:58:13.502Z,874.33
2018-09-20T17:00:42.042Z,872.27
2018-09-20T17:03:10.581Z,884.27
2018-09-20T17:05:39.146Z,876.03
2018-09-20T17:08:07.758Z,891.23
2018-09-20T17:10:36.288Z,890.53
2018-09-20T17:13:08.421Z,886.97
2018-09-20T17:15:36.961Z,883.23
2018-09-20T17:18:06.223Z,888.87
2018-09-20T17:20:34.776Z,879.73
2018-09-20T17:23:07.717Z,892.77
2018-09-20T17:25:36.348Z,906.17
2018-09-20T17:28:05.282Z,900.60
2018-09-20T17:30:33.853Z,912.47
2018-09-20T17:33:05.108Z,905.57
2018-09-20T17:35:34.546Z,912.47
2018-09-20T17:38:04.780Z,909.63
2018-09-20T17:40:34.805Z,903.83
2018-09-20T17:43:06.675Z,910.50
2018-09-20T17:45:35.434Z,877.60
2018-09-20T17:48:05.526Z,902.00
2018-09-20T17:50:34.099Z,881.27
2018-09-20T17:53:05.044Z,885.20
2018-09-20T17:55:33.979Z,883.60
2018-09-20T17:58:02.723Z,894.83
2018-09-20T18:00:31.376Z,886.27
2018-09-20T18:02:59.959Z,892.27
2018-09-20T18:05:28.614Z,886.27
2018-09-20T18:07:57.228Z,898.77
2018-09-20T18:10:25.839Z,887.77
2018-09-20T18:12:54.396Z,901.23
2018-09-20T18:15:22.981Z,885.30
2018-09-20T18:17:51.631Z,888.90
2018-09-20T18:20:20.192Z,905.13
2018-09-20T18:22:49.319Z,897.33
2018-09-20T18:25:17.920Z,901.20
2018-09-20T18:27:46.478Z,893.17
2018-09-20T18:30:17.657Z,881.37
2018-09-20T18:32:46.227Z,882.63
2018-09-20T18:35:14.818Z,856.53
2018-09-20T18:37:44.676Z,852.40
2018-09-20T18:40:13.220Z,863.60
2018-09-20T18:42:41.870Z,813.07
2018-09-20T18:45:10.916Z,809.57
2018-09-20T18:47:39.471Z,808.30
2018-09-20T18:50:08.165Z,798.23
2018-09-20T18:52:36.744Z,804.53
2018-09-20T18:55:06.165Z,786.60
2018-09-20T18:57:34.881Z,785.90
2018-09-20T19:00:06.675Z,788.63
2018-09-20T19:02:35.238Z,787.70
2018-09-20T19:05:05.265Z,775.60
2018-09-20T19:07:33.831Z,782.30
2018-09-20T19:10:05.395Z,777.63
2018-09-20T19:12:33.995Z,789.70
2018-09-20T19:15:02.557Z,789.37
2018-09-20T19:17:31.146Z,792.97
2018-09-20T19:19:59.686Z,766.80
2018-09-20T19:22:28.278Z,751.23
2018-09-20T19:24:56.901Z,782.77
2018-09-20T19:27:25.482Z,774.93
2018-09-20T19:29:54.001Z,782.70
2018-09-20T19:32:22.616Z,760.30
2018-09-20T19:34:51.125Z,767.87
2018-09-20T19:37:19.623Z,781.10
2018-09-20T19:39:48.167Z,769.10
2018-09-20T19:42:16.678Z,782.80
2018-09-20T19:44:45.236Z,773.37
2018-09-20T19:47:13.813Z,782.53
2018-09-20T19:49:42.528Z,751.70
2018-09-20T19:52:11.044Z,744.43
2018-09-20T19:54:39.517Z,749.93
2018-09-20T19:57:08.061Z,727.17
2018-09-20T19:59:36.551Z,736.43
2018-09-20T20:02:05.075Z,741.10
2018-09-20T20:04:33.640Z,744.07
2018-09-20T20:07:02.162Z,720.60
2018-09-20T20:09:30.704Z,717.13
2018-09-20T20:11:59.255Z,728.60
2018-09-20T20:14:27.767Z,738.50
2018-09-20T20:16:56.229Z,718.73
2018-09-20T20:19:24.740Z,710.97
2018-09-20T20:21:53.403Z,713.63
2018-09-20T20:24:21.899Z,734.53
2018-09-20T20:26:50.457Z,747.43
2018-09-20T20:29:18.988Z,741.40
2018-09-20T20:31:47.512Z,737.37
2018-09-20T20:34:15.989Z,729.40
2018-09-20T20:36:44.464Z,734.43
2018-09-20T20:39:13.002Z,730.07
2018-09-20T20:41:41.568Z,732.87
2018-09-20T20:44:10.112Z,721.93
2018-09-20T20:46:38.563Z,726.67
2018-09-20T20:49:07.090Z,740.23
2018-09-20T20:51:35.661Z,727.20
2018-09-20T20:54:04.170Z,733.07
2018-09-20T20:56:32.732Z,744.63
2018-09-20T20:59:01.224Z,731.27
2018-09-20T21:01:29.755Z,733.60
2018-09-20T21:03:58.265Z,741.60
2018-09-20T21:06:26.868Z,704.57
2018-09-20T21:08:55.399Z,725.27
2018-09-20T21:11:23.883Z,711.17
2018-09-20T21:13:52.414Z,689.37
2018-09-20T21:16:20.876Z,712.70
2018-09-20T21:18:49.846Z,714.90
2018-09-20T21:21:18.364Z,686.23
2018-09-20T21:23:46.912Z,703.17
2018-09-20T21:26:19.846Z,711.87
2018-09-20T21:28:48.397Z,698.87
2018-09-20T21:31:17.244Z,699.83
2018-09-20T21:33:45.897Z,710.67
2018-09-20T21:36:14.474Z,712.97
2018-09-20T21:38:43.079Z,703.73
2018-09-20T21:41:11.798Z,717.87
2018-09-20T21:43:40.573Z,744.67
2018-09-20T21:46:09.118Z,761.30
2018-09-20T21:48:37.717Z,750.90
2018-09-20T21:51:06.530Z,736.37
2018-09-20T21:53:35.979Z,734.27
2018-09-20T21:56:06.096Z,685.07
2018-09-20T21:58:34.604Z,725.30
2018-09-20T22:01:06.925Z,710.47
2018-09-20T22:03:35.437Z,712.33
2018-09-20T22:06:07.213Z,702.60
2018-09-20T22:08:36.189Z,713.57
2018-09-20T22:11:06.466Z,715.87
2018-09-20T22:13:35.957Z,705.50
2018-09-20T22:16:06.128Z,690.67
2018-09-20T22:18:34.833Z,667.97
2018-09-20T22:21:06.258Z,671.07
2018-09-20T22:23:34.729Z,639.33
2018-09-20T22:26:03.245Z,656.03
2018-09-20T22:28:31.832Z,679.40
2018-09-20T22:31:00.380Z,692.23
2018-09-20T22:33:28.892Z,711.10
2018-09-20T22:35:57.421Z,735.90
2018-09-20T22:38:26.249Z,711.63
2018-09-20T22:40:54.824Z,712.27
2018-09-20T22:43:23.416Z,711.67
2018-09-20T22:45:51.952Z,702.63
2018-09-20T22:48:20.507Z,726.73
2018-09-20T22:50:49.165Z,740.27
2018-09-20T22:53:17.660Z,735.07
2018-09-20T22:55:46.422Z,748.97
2018-09-20T22:58:14.961Z,693.90
2018-09-20T23:00:43.500Z,708.57
2018-09-20T23:03:12.024Z,716.30
2018-09-20T23:05:40.558Z,707.60
2018-09-20T23:08:09.097Z,695.63
2018-09-20T23:10:37.786Z,716.60
2018-09-20T23:13:06.665Z,724.23
2018-09-20T23:15:35.177Z,729.50
2018-09-20T23:18:06.358Z,684.73
2018-09-20T23:20:35.001Z,711.63
2018-09-20T23:23:06.624Z,707.83
2018-09-20T23:25:35.135Z,734.87
2018-09-20T23:28:03.668Z,720.73
2018-09-20T23:30:32.481Z,748.77
2018-09-20T23:33:00.965Z,769.00
2018-09-20T23:35:29.464Z,776.13
2018-09-20T23:37:57.953Z,786.43
2018-09-20T23:40:26.483Z,792.63
2018-09-20T23:42:54.952Z,802.77
2018-09-20T23:45:23.498Z,807.60
2018-09-20T23:47:52.026Z,820.60
2018-09-20T23:50:20.502Z,796.47
2018-09-20T23:52:49.052Z,819.60
2018-09-20T23:55:17.565Z,811.37
2018-09-20T23:57:46.013Z,818.53
